Flight Track Log - Related Links

Times and Time Zones

All times are in EST time to prevent confusion due to time zone crossing. See the N400PU flight status page for this flight to view local times or setup timezone preferences in your user account.

Time Position Orientation Groundspeed Altitude Reporting Facility
EST Latitude Longitude Course Direction KTS MPH feet Rate Location/Type
Wed 09:09:53 AM 40.8333 -74.0833 252° West 156 180 1,400  Level New York TRACON
Wed 09:10:54 AM 40.8167 -74.1500 252° West 194 223 1,900 1,388 Climbing New York TRACON
Wed 09:11:54 AM 40.8167 -74.2333 270° West 225 259 4,200 1,785 Climbing New York TRACON
Wed 09:12:55 AM 40.8167 -74.3167 270° West 226 260 5,500 1,884 Climbing New York TRACON
Wed 09:13:55 AM 40.8000 -74.4000 255° West 230 265 8,000 1,736 Climbing New York TRACON
Wed 09:14:56 AM 40.7833 -74.4833 255° West 228 262 9,000 1,170 Climbing New York TRACON
Wed 09:17:15 AM 40.7675 -74.6836 264° West 250 288 11,900 1,628 Climbing New York Center
Wed 09:18:15 AM 40.7747 -74.7800 276° West 284 327 14,400 2,850 Climbing New York Center
Wed 09:19:15 AM 40.7797 -74.8789 274° West 289 333 17,600 2,900 Climbing New York Center
Wed 09:20:15 AM 40.7553 -74.9817 253° West 282 325 20,200 2,550 Climbing New York Center
Wed 09:21:15 AM 40.7311 -75.0706 250° West 267 307 22,700 2,350 Climbing New York Center
Wed 09:22:15 AM 40.7094 -75.1539 251° West 256 295 24,900 1,850 Climbing New York Center
Wed 09:23:15 AM 40.6875 -75.2375 251° West 250 288 26,400 1,450 Climbing New York Center
Wed 09:24:15 AM 40.6633 -75.3261 250° West 250 288 27,800 1,450 Climbing New York Center
Wed 09:25:15 AM 40.6389 -75.4147 250° West 250 288 29,300 1,450 Climbing New York Center
Wed 09:26:15 AM 40.6144 -75.5061 251° West 256 295 30,700 1,350 Climbing New York Center
Wed 09:27:15 AM 40.5947 -75.5839 252° West 256 295 32,000 950 Climbing New York Center
Wed 09:28:15 AM 40.5703 -75.6753 251° West 261 300 32,600 600 Climbing New York Center
Wed 09:29:15 AM 40.5456 -75.7664 250° West 261 300 33,200 650 Climbing New York Center
Wed 09:30:15 AM 40.5206 -75.8628 251° West 267 307 33,900 750 Climbing New York Center
Wed 09:31:15 AM 40.4892 -75.9586 247° West 275 316 34,700 850 Climbing New York Center
Wed 09:32:15 AM 40.4644 -76.0497 250° West 281 323 35,600 850 Climbing New York Center
Wed 09:33:15 AM 40.4394 -76.1406 250° West 281 323 36,400 600 Climbing New York Center
Wed 09:34:15 AM 40.4164 -76.2314 252° West 281 323 36,800 450 Climbing New York Center
Wed 09:35:15 AM 40.3914 -76.3247 251° West 276 318 37,300 500 Climbing New York Center
Wed 09:36:15 AM 40.3681 -76.4183 252° West 276 318 37,800 350 Climbing New York Center
Wed 09:37:15 AM 40.3469 -76.5119 254° West 276 318 38,000 100 Climbing New York Center
Wed 09:38:15 AM 40.3192 -76.6103 250° West 282 325 38,000  Level New York Center
Wed 09:39:15 AM 40.2956 -76.7064 252° West 287 330 38,000  Level New York Center
Wed 09:40:15 AM 40.2697 -76.8047 251° West 287 330 38,000  Level New York Center
Wed 09:41:16 AM 40.2458 -76.9061 253° West 292 336 38,000  Level New York Center
Wed 09:42:16 AM 40.2239 -77.0075 254° West 292 336 38,000  Level New York Center
Wed 09:43:15 AM 40.2183 -77.1103 266° West 292 336 38,000  Level New York Center
Wed 09:44:15 AM 40.2147 -77.2133 267° West 292 336 38,000  Level New York Center
Wed 09:46:22 AM 40.2075 -77.4286 268° West 287 330 38,000  Level Cleveland Center
Wed 09:47:24 AM 40.2031 -77.5333 267° West 288 331 38,000  Level Cleveland Center
Wed 09:48:27 AM 40.1969 -77.6592 266° West 290 334 38,000  Level Cleveland Center
Wed 09:49:29 AM 40.1919 -77.7642 266° West 290 334 38,000  Level Cleveland Center
Wed 09:50:31 AM 40.1869 -77.8669 266° West 286 329 38,000  Level Cleveland Center
Wed 09:51:33 AM 40.1825 -77.9711 267° West 287 330 38,000  Level Cleveland Center
Wed 09:52:35 AM 40.1778 -78.0742 267° West 286 329 38,000  Level Cleveland Center
Wed 09:53:37 AM 40.1711 -78.1994 266° West 287 330 38,000  Level Cleveland Center
Wed 09:54:39 AM 40.1672 -78.2867 267° West 289 333 38,000  Level Cleveland Center
Wed 09:55:41 AM 40.1606 -78.4150 266° West 293 337 38,000  Level Cleveland Center
Wed 09:56:43 AM 40.1558 -78.5233 267° West 299 344 38,000  Level Cleveland Center
Wed 09:57:45 AM 40.1497 -78.6319 266° West 300 345 38,000  Level Cleveland Center
Wed 09:58:47 AM 40.1444 -78.7406 266° West 301 346 38,000  Level Cleveland Center
Wed 09:59:50 AM 40.1389 -78.8511 266° West 304 350 38,000  Level Cleveland Center
Wed 10:00:52 AM 40.1311 -78.9856 266° West 310 357 38,000  Level Cleveland Center
Wed 10:01:54 AM 40.1231 -79.0983 265° West 312 359 38,000  Level Cleveland Center
Wed 10:02:56 AM 40.1186 -79.2092 267° West 308 354 38,000  Level Cleveland Center
Wed 10:03:58 AM 40.1122 -79.3222 266° West 312 359 38,000  Level Cleveland Center
Wed 10:05:00 AM 40.1058 -79.4333 266° West 309 356 38,000  Level Cleveland Center
Wed 10:06:02 AM 40.0992 -79.5464 266° West 311 358 38,000  Level Cleveland Center
Wed 10:07:04 AM 40.0928 -79.6583 266° West 309 356 38,000  Level Cleveland Center
Wed 10:08:07 AM 40.0836 -79.7906 265° West 305 351 38,000  Level Cleveland Center
Wed 10:09:09 AM 40.0775 -79.9025 266° West 306 352 38,000  Level Cleveland Center
Wed 10:10:11 AM 40.0708 -80.0133 266° West 305 351 38,000  Level Cleveland Center
Wed 10:11:13 AM 40.0644 -80.1231 266° West 303 349 38,000  Level Cleveland Center
Wed 10:12:15 AM 40.0569 -80.2333 265° West 303 349 38,000  Level Cleveland Center
Wed 10:13:17 AM 40.0506 -80.3414 266° West 299 344 38,000  Level Cleveland Center
Wed 10:14:19 AM 40.0431 -80.4503 265° West 300 345 38,000  Level Cleveland Center
Wed 10:15:21 AM 40.0339 -80.5806 265° West 300 345 38,000  Level Cleveland Center
Wed 10:16:23 AM 40.0261 -80.6894 265° West 300 345 38,000  Level Cleveland Center
Wed 10:17:25 AM 40.0189 -80.7972 265° West 300 345 38,000  Level Cleveland Center
Wed 10:18:08 AM 40.0150 -80.8786 266° West 298 343 38,000  Level Indianapolis Center
Wed 10:19:10 AM 40.0144 -80.9881 270° West 298 343 38,000  Level Indianapolis Center
Wed 10:20:12 AM 40.0119 -81.1008 268° West 305 351 38,000  Level Indianapolis Center
Wed 10:21:14 AM 40.0106 -81.2097 269° West 300 345 38,000  Level Indianapolis Center
Wed 10:22:16 AM 40.0086 -81.3211 269° West 302 348 38,000  Level Indianapolis Center
Wed 10:23:18 AM 40.0061 -81.4314 268° West 302 348 38,000  Level Indianapolis Center
Wed 10:24:20 AM 40.0047 -81.5419 269° West 301 346 38,000  Level Indianapolis Center
Wed 10:25:22 AM 40.0017 -81.6703 268° West 302 348 38,000  Level Indianapolis Center
Wed 10:26:24 AM 39.9992 -81.7814 268° West 302 348 38,000  Level Indianapolis Center
Wed 10:27:26 AM 39.9978 -81.8731 269° West 296 341 38,000  Level Indianapolis Center
Wed 10:28:28 AM 39.9942 -82.0044 268° West 302 348 38,000  Level Indianapolis Center
Wed 10:29:31 AM 40.0033 -82.1128 276° West 301 346 38,000  Level Indianapolis Center
Wed 10:30:33 AM 40.0139 -82.2219 277° West 302 348 38,000  Level Indianapolis Center
Wed 10:31:35 AM 40.0258 -82.3311 278° West 305 351 38,000  Level Indianapolis Center
Wed 10:32:37 AM 40.0378 -82.4400 278° West 304 350 38,000  Level Indianapolis Center
Wed 10:33:39 AM 40.0503 -82.5714 277° West 304 350 38,000  Level Indianapolis Center
Wed 10:34:41 AM 40.0617 -82.6811 278° West 305 351 38,000  Level Indianapolis Center
Wed 10:35:43 AM 40.0731 -82.7903 278° West 306 352 38,000  Level Indianapolis Center
Wed 10:36:45 AM 40.0842 -82.9003 278° West 306 352 38,000  Level Indianapolis Center
Wed 10:37:47 AM 40.0950 -83.0100 277° West 307 353 38,000  Level Indianapolis Center
Wed 10:38:49 AM 40.1061 -83.1211 277° West 310 357 38,000  Level Indianapolis Center
Wed 10:39:51 AM 40.1189 -83.2536 277° West 309 356 38,000  Level Indianapolis Center
Wed 10:40:53 AM 40.1289 -83.3631 277° West 308 354 38,000  Level Indianapolis Center
Wed 10:41:55 AM 40.1392 -83.4728 277° West 308 354 38,000  Level Indianapolis Center
Wed 10:42:57 AM 40.1489 -83.5831 277° West 310 357 38,000 -339 Level Indianapolis Center
Wed 10:43:59 AM 40.1611 -83.7133 277° West 306 352 37,300 -823 Descending Indianapolis Center
Wed 10:45:01 AM 40.1706 -83.8158 277° West 289 333 36,300 -968 Descending Indianapolis Center
Wed 10:46:03 AM 40.1808 -83.9208 277° West 293 337 35,300 -968 Descending Indianapolis Center
Wed 10:47:05 AM 40.1906 -84.0264 277° West 295 339 34,300 -968 Descending Indianapolis Center
Wed 10:48:07 AM 40.1986 -84.1325 276° West 295 339 33,300 -968 Descending Indianapolis Center
Wed 10:49:09 AM 40.2078 -84.2397 276° West 298 343 32,300 -1,065 Descending Indianapolis Center
Wed 10:50:11 AM 40.2189 -84.3683 276° West 298 343 31,100 -1,113 Descending Indianapolis Center
Wed 10:51:13 AM 40.2286 -84.4747 277° West 294 338 30,000 -1,065 Descending Indianapolis Center
Wed 10:52:15 AM 40.2381 -84.5808 277° West 295 339 28,900 -1,258 Descending Indianapolis Center
Wed 10:53:17 AM 40.2472 -84.6925 276° West 307 353 27,400 -1,452 Descending Indianapolis Center
Wed 10:54:19 AM 40.2556 -84.8072 275° West 318 366 25,900 -1,561 Descending Indianapolis Center
Wed 10:55:20 AM 40.2675 -84.9333 277° West 318 366 24,200 -1,561 Descending Indianapolis Center
Wed 10:56:22 AM 40.2761 -85.0472 276° West 317 365 22,700 -1,452 Descending Indianapolis Center
Wed 10:57:24 AM 40.2861 -85.1603 277° West 315 362 21,200 -1,210 Descending Indianapolis Center
Wed 10:58:26 AM 40.2936 -85.2711 275° West 310 357 20,200 -581 Descending Indianapolis Center
Wed 10:59:28 AM 40.3044 -85.4031 276° West 306 352 20,000 -581 Descending Indianapolis Center
Wed 11:00:30 AM 40.3119 -85.5083 275° West 296 341 19,000 -1,171 Descending Indianapolis Center
Wed 11:01:31 AM 40.3200 -85.6142 276° West 294 338 17,600 -1,707 Descending Indianapolis Center
Wed 11:02:33 AM 40.3269 -85.7192 275° West 293 337 15,500 -2,468 Descending Indianapolis Center
Wed 11:03:35 AM 40.3353 -85.8236 276° West 293 337 12,500 -3,059 Descending Indianapolis Center
Wed 11:04:15 AM 40.3400 -85.9031 274° West 266 306 10,300 -2,494 Descending Chicago Center
Wed 11:05:04 AM 40.3464 -85.9681 277° West 244 281 8,800 -1,770 Descending Chicago Center
Wed 11:05:16 AM 40.3458 -85.9853 268° West 224 258 8,500 -1,417 Descending Chicago Center
Wed 11:06:16 AM 40.3514 -86.0756 275° West 229 264 7,100 -1,189 Descending Chicago Center
Wed 11:07:07 AM 40.3561 -86.1358 276° West 233 268 6,300 -984 Descending Chicago Center
Wed 11:07:17 AM 40.3550 -86.1550 266° West 233 268 6,100 -968 Descending Chicago Center
Wed 11:08:09 AM 40.3592 -86.2214 275° West 236 272 5,300 -1,100 Descending Chicago Center
Wed 11:08:17 AM 40.3606 -86.2478 274° West 242 278 5,000 -871 Descending Chicago Center
Wed 11:09:11 AM 40.3642 -86.3083 274° West 239 275 4,400 -787 Descending Chicago Center
Wed 11:09:18 AM 40.3639 -86.3300 269° West 234 269 4,200 -353 Descending Chicago Center
Wed 11:10:19 AM 40.3672 -86.4175 273° West 233 268 4,000 -103 Descending Chicago Center
Wed 11:11:15 AM 40.3725 -86.4914 275° West 233 268 4,000 -100 Level Chicago Center
Wed 11:11:19 AM 40.3725 -86.5050 270° West 230 265 3,900 -885 Descending Chicago Center
Wed 11:12:16 AM 40.3767 -86.5692 275° West 227 261 3,100 -885 Descending Chicago Center
Wed 11:12:20 AM 40.3764 -86.5761 267° West 199 229 3,000 -97 Descending Chicago Center
Wed 11:13:18 AM 40.3797 -86.6356 274° West 209 241 3,000  Level Chicago Center
Wed 11:13:20 AM 40.3781 -86.6444 256° West 174 200 3,000  Level Chicago Center
Wed 11:14:20 AM 40.3822 -86.6956 276° West 188 216 3,000  Level Chicago Center
Wed 11:14:21 AM 40.3819 -86.7050 268° West 171 197 3,000  Level Chicago Center
Wed 11:15:21 AM 40.3892 -86.7517 282° West 173 199 3,000  Level Chicago Center
Wed 11:15:22 AM 40.3906 -86.7600 282° West 143 165 3,000 -393 Level Chicago Center
Wed 11:16:22 AM 40.3950 -86.8039 278° West 121 139 2,600 -492 Descending Chicago Center
Wed 11:16:23 AM 40.3967 -86.8053 328° Northwest 148 170 2,500 -689 Descending Chicago Center
Wed 11:17:23 AM 40.4017 -86.8508 278° West 119 137 1,900 -550 Descending Chicago Center
Wed 11:18:23 AM 40.4044 -86.8892 275° West 112 129 1,400 -500 Descending Chicago Center

Login

Don't have an account? Register now (free) for customized features, flight alerts, and more!